< < Back
Terminal Aerodrome Forecast


Current Version              Previous Versions:   1  2  3  4  5  6  7  8  9  

Terminal Aerodrome Forecast

251
FTUS42 KCHS 021134
TAFCHS
TAF
KCHS 021134Z 0212/0312 VRB04KT P6SM SCT035 BKN250
     FM021800 19007KT P6SM SCT040 BKN200
     FM030000 22004KT P6SM FEW040=



Latest METAR

678
SAUS80 KWBC 030600 RRA
MTRCHS
METAR KCHS 030556Z 00000KT 10SM SCT250 24/23 A2997 RMK AO2 SLP147
T02440228 10272 20244 58008


USA.gov is the U.S. government's official web portal to all federal, state and local government web resources and services.